Drumbo, Canada
Current Conditions -  °F | °C
As of 4:03 PM on Friday 31 Oct 2014 (Local Time) from CYKF Reporting Station
Light Rain Light Rain  
Wind Chill: 43°   Ceiling: 3500
Heat Index: 43°   Visibility: 9mi
Dew Point: 39°   Wind: 3mph
Humidity: 87%   Direction: 90°E
Pressure: 29.88"   Gusts: NA
Location:  43.23°N, 80.55°W
Report Text: CYKF 312003Z AUTO 09003KT 040V100 9SM -RA FEW009 SCT021 OVC035 06/04 A2988 RMK SLP127
Loading
Personal Weather Stations






























Interactive Weather Map
Tropical Storm Tracking
New forecast layout! Learn more

10-Day Weather Forecast

Advertisements
Track Severe Weather on mobile